Decoded Metar for PAVA (Chevak in AK, USA) (IATA:N/A) | Meteo·Mobile Aviation Weather
aviador You're here:

PAVA Decoded Metar

Chevak in AK, USA
Report Time2018-09-18 12:56:00
UTC Time2018-09-18 13:21:32
Flight Rules vfr VFR
Wind260° at 09 kt
W.Decomp.*RWY 20: 6.1 kt HW 6.6 kt RCW
W.Rank260° ranks 25
Current wind is below 260° avg. (9.7)
Visibility9999 m
Phenomena:N/A
Clouds:N/A
Expected CloudBase > 800 ft AGL from Temp-Dew spread
CeilingNone
Temp06°C (ISA -9)
Dew Point04°C (87% RH)
AAT1.4°C
QNH1024 hPa
Density Alt-1,257 ft
Elevation75 ft
Report Wrong Elevation
Raw Report
PAVA 181256Z AUTO 26009KT 10SM CLR 06/04 A3024 RMK AO2 SLP324
T00610044 PNO $=

Extra information for PAVA:More info

Airport Information Weather charts Add Link Nearby Venues Social comments

AIRNAV info for PAVA